sensor_id;sensor_type;location;lat;lon;timestamp;P1;durP1;ratioP1;P2;durP2;ratioP2
51943;SDS011;37969;53.132;6.370;2023-08-31T00:00:31;4.15;;;2.88;;
51943;SDS011;37969;53.132;6.370;2023-08-31T00:02:59;6.13;;;2.95;;
51943;SDS011;37969;53.132;6.370;2023-08-31T00:05:25;4.03;;;2.92;;
51943;SDS011;37969;53.132;6.370;2023-08-31T00:07:54;5.00;;;3.10;;
51943;SDS011;37969;53.132;6.370;2023-08-31T00:10:20;6.47;;;3.17;;
51943;SDS011;37969;53.132;6.370;2023-08-31T00:12:47;4.85;;;2.47;;
51943;SDS011;37969;53.132;6.370;2023-08-31T00:15:14;7.55;;;3.10;;
51943;SDS011;37969;53.132;6.370;2023-08-31T00:17:40;8.00;;;3.70;;
51943;SDS011;37969;53.132;6.370;2023-08-31T00:20:08;3.30;;;2.92;;
51943;SDS011;37969;53.132;6.370;2023-08-31T00:22:37;5.40;;;2.75;;
51943;SDS011;37969;53.132;6.370;2023-08-31T00:25:04;5.57;;;2.63;;
51943;SDS011;37969;53.132;6.370;2023-08-31T00:27:33;3.88;;;2.13;;
51943;SDS011;37969;53.132;6.370;2023-08-31T00:30:03;5.80;;;2.38;;
51943;SDS011;37969;53.132;6.370;2023-08-31T00:32:29;3.88;;;2.47;;
51943;SDS011;37969;53.132;6.370;2023-08-31T00:34:55;4.50;;;1.98;;
51943;SDS011;37969;53.132;6.370;2023-08-31T00:37:22;2.90;;;2.20;;
51943;SDS011;37969;53.132;6.370;2023-08-31T00:39:48;3.72;;;2.30;;
51943;SDS011;37969;53.132;6.370;2023-08-31T00:42:17;2.88;;;1.75;;
51943;SDS011;37969;53.132;6.370;2023-08-31T00:44:43;4.13;;;1.95;;
51943;SDS011;37969;53.132;6.370;2023-08-31T00:47:16;5.93;;;2.00;;
51943;SDS011;37969;53.132;6.370;2023-08-31T00:49:42;3.50;;;1.42;;
51943;SDS011;37969;53.132;6.370;2023-08-31T00:52:09;4.47;;;1.20;;
51943;SDS011;37969;53.132;6.370;2023-08-31T00:54:35;3.00;;;1.13;;
51943;SDS011;37969;53.132;6.370;2023-08-31T00:57:02;1.25;;;1.10;;
51943;SDS011;37969;53.132;6.370;2023-08-31T00:59:29;3.72;;;1.65;;
51943;SDS011;37969;53.132;6.370;2023-08-31T01:01:59;4.38;;;1.00;;
51943;SDS011;37969;53.132;6.370;2023-08-31T01:04:48;1.77;;;0.95;;
51943;SDS011;37969;53.132;6.370;2023-08-31T01:07:34;1.83;;;0.82;;
51943;SDS011;37969;53.132;6.370;2023-08-31T01:10:13;2.15;;;0.90;;
51943;SDS011;37969;53.132;6.370;2023-08-31T01:15:27;3.33;;;0.70;;
51943;SDS011;37969;53.132;6.370;2023-08-31T01:17:57;1.15;;;0.70;;
51943;SDS011;37969;53.132;6.370;2023-08-31T01:20:32;2.20;;;0.82;;
51943;SDS011;37969;53.132;6.370;2023-08-31T01:23:01;3.25;;;0.95;;
51943;SDS011;37969;53.132;6.370;2023-08-31T01:25:29;1.30;;;0.80;;
51943;SDS011;37969;53.132;6.370;2023-08-31T01:27:56;1.35;;;0.80;;
51943;SDS011;37969;53.132;6.370;2023-08-31T01:30:22;0.82;;;0.82;;
51943;SDS011;37969;53.132;6.370;2023-08-31T01:32:48;3.28;;;1.10;;
51943;SDS011;37969;53.132;6.370;2023-08-31T01:35:15;1.83;;;0.80;;
51943;SDS011;37969;53.132;6.370;2023-08-31T01:37:44;3.38;;;0.93;;
51943;SDS011;37969;53.132;6.370;2023-08-31T01:43:00;2.65;;;0.80;;
51943;SDS011;37969;53.132;6.370;2023-08-31T01:45:28;4.70;;;0.90;;
51943;SDS011;37969;53.132;6.370;2023-08-31T01:47:56;9.45;;;1.63;;
51943;SDS011;37969;53.132;6.370;2023-08-31T01:50:23;4.57;;;1.40;;
51943;SDS011;37969;53.132;6.370;2023-08-31T01:52:49;2.38;;;1.23;;
51943;SDS011;37969;53.132;6.370;2023-08-31T01:55:15;3.90;;;1.10;;
51943;SDS011;37969;53.132;6.370;2023-08-31T01:57:41;3.22;;;1.05;;
51943;SDS011;37969;53.132;6.370;2023-08-31T02:00:08;9.60;;;1.40;;
51943;SDS011;37969;53.132;6.370;2023-08-31T02:02:34;2.55;;;1.20;;
51943;SDS011;37969;53.132;6.370;2023-08-31T02:05:01;1.90;;;0.98;;
51943;SDS011;37969;53.132;6.370;2023-08-31T02:07:29;5.72;;;1.20;;
51943;SDS011;37969;53.132;6.370;2023-08-31T02:09:55;4.10;;;1.15;;
51943;SDS011;37969;53.132;6.370;2023-08-31T02:12:21;4.13;;;1.00;;
51943;SDS011;37969;53.132;6.370;2023-08-31T02:14:48;2.45;;;1.13;;
51943;SDS011;37969;53.132;6.370;2023-08-31T02:17:14;3.40;;;1.30;;
51943;SDS011;37969;53.132;6.370;2023-08-31T02:19:41;3.05;;;1.20;;
51943;SDS011;37969;53.132;6.370;2023-08-31T02:22:07;3.50;;;1.20;;
51943;SDS011;37969;53.132;6.370;2023-08-31T02:24:33;3.60;;;1.10;;
51943;SDS011;37969;53.132;6.370;2023-08-31T02:26:59;4.28;;;1.05;;
51943;SDS011;37969;53.132;6.370;2023-08-31T02:29:26;2.20;;;1.35;;
51943;SDS011;37969;53.132;6.370;2023-08-31T02:31:53;3.72;;;1.20;;
51943;SDS011;37969;53.132;6.370;2023-08-31T02:34:19;3.30;;;1.05;;
51943;SDS011;37969;53.132;6.370;2023-08-31T02:36:45;2.47;;;1.02;;
51943;SDS011;37969;53.132;6.370;2023-08-31T02:39:11;1.92;;;0.93;;
51943;SDS011;37969;53.132;6.370;2023-08-31T02:41:38;3.05;;;1.00;;
51943;SDS011;37969;53.132;6.370;2023-08-31T02:44:05;1.15;;;0.95;;
51943;SDS011;37969;53.132;6.370;2023-08-31T02:46:31;2.75;;;1.00;;
51943;SDS011;37969;53.132;6.370;2023-08-31T02:48:57;2.60;;;1.00;;
51943;SDS011;37969;53.132;6.370;2023-08-31T02:51:23;3.05;;;1.20;;
51943;SDS011;37969;53.132;6.370;2023-08-31T02:53:49;2.95;;;1.00;;
51943;SDS011;37969;53.132;6.370;2023-08-31T02:56:17;1.38;;;0.85;;
51943;SDS011;37969;53.132;6.370;2023-08-31T02:58:43;1.55;;;1.20;;
51943;SDS011;37969;53.132;6.370;2023-08-31T03:01:10;6.60;;;1.48;;
51943;SDS011;37969;53.132;6.370;2023-08-31T03:03:37;3.15;;;1.20;;
51943;SDS011;37969;53.132;6.370;2023-08-31T03:06:04;2.08;;;1.08;;
51943;SDS011;37969;53.132;6.370;2023-08-31T03:08:31;4.68;;;1.50;;
51943;SDS011;37969;53.132;6.370;2023-08-31T03:10:57;2.25;;;1.00;;
51943;SDS011;37969;53.132;6.370;2023-08-31T03:13:24;1.10;;;0.82;;
51943;SDS011;37969;53.132;6.370;2023-08-31T03:15:50;3.47;;;1.27;;
51943;SDS011;37969;53.132;6.370;2023-08-31T03:18:16;4.18;;;1.58;;
51943;SDS011;37969;53.132;6.370;2023-08-31T03:20:43;1.42;;;1.00;;
51943;SDS011;37969;53.132;6.370;2023-08-31T03:23:09;3.22;;;1.00;;
51943;SDS011;37969;53.132;6.370;2023-08-31T03:25:36;3.28;;;1.10;;
51943;SDS011;37969;53.132;6.370;2023-08-31T03:28:02;1.98;;;1.00;;
51943;SDS011;37969;53.132;6.370;2023-08-31T03:30:29;1.65;;;1.10;;
51943;SDS011;37969;53.132;6.370;2023-08-31T03:32:55;2.70;;;1.40;;
51943;SDS011;37969;53.132;6.370;2023-08-31T03:35:21;1.98;;;1.08;;
51943;SDS011;37969;53.132;6.370;2023-08-31T03:37:52;3.17;;;1.00;;
51943;SDS011;37969;53.132;6.370;2023-08-31T03:40:18;2.25;;;1.13;;
51943;SDS011;37969;53.132;6.370;2023-08-31T03:42:45;1.98;;;1.10;;
51943;SDS011;37969;53.132;6.370;2023-08-31T03:45:11;1.42;;;0.90;;
51943;SDS011;37969;53.132;6.370;2023-08-31T03:47:37;2.35;;;1.00;;
51943;SDS011;37969;53.132;6.370;2023-08-31T03:50:04;3.53;;;1.33;;
51943;SDS011;37969;53.132;6.370;2023-08-31T03:52:30;2.83;;;1.38;;
51943;SDS011;37969;53.132;6.370;2023-08-31T03:54:57;4.93;;;1.42;;
51943;SDS011;37969;53.132;6.370;2023-08-31T03:57:23;4.10;;;1.33;;
51943;SDS011;37969;53.132;6.370;2023-08-31T03:59:49;3.25;;;1.40;;
51943;SDS011;37969;53.132;6.370;2023-08-31T04:02:15;2.78;;;1.40;;
51943;SDS011;37969;53.132;6.370;2023-08-31T04:04:42;5.68;;;1.40;;
51943;SDS011;37969;53.132;6.370;2023-08-31T04:07:08;3.50;;;1.50;;
51943;SDS011;37969;53.132;6.370;2023-08-31T04:09:34;6.63;;;1.60;;
51943;SDS011;37969;53.132;6.370;2023-08-31T04:12:01;2.97;;;1.73;;
51943;SDS011;37969;53.132;6.370;2023-08-31T04:14:27;5.28;;;1.38;;
51943;SDS011;37969;53.132;6.370;2023-08-31T04:16:54;4.03;;;1.52;;
51943;SDS011;37969;53.132;6.370;2023-08-31T04:19:20;3.88;;;1.52;;
51943;SDS011;37969;53.132;6.370;2023-08-31T04:21:47;4.45;;;2.30;;
51943;SDS011;37969;53.132;6.370;2023-08-31T04:24:13;3.78;;;1.65;;
51943;SDS011;37969;53.132;6.370;2023-08-31T04:26:40;6.53;;;1.80;;
51943;SDS011;37969;53.132;6.370;2023-08-31T04:29:06;3.58;;;1.83;;
51943;SDS011;37969;53.132;6.370;2023-08-31T04:31:32;4.10;;;1.80;;
51943;SDS011;37969;53.132;6.370;2023-08-31T04:33:58;4.32;;;1.67;;
51943;SDS011;37969;53.132;6.370;2023-08-31T04:36:25;3.03;;;1.95;;
51943;SDS011;37969;53.132;6.370;2023-08-31T04:38:51;4.15;;;1.73;;
51943;SDS011;37969;53.132;6.370;2023-08-31T04:41:18;3.80;;;2.45;;
51943;SDS011;37969;53.132;6.370;2023-08-31T04:43:44;3.63;;;2.55;;
51943;SDS011;37969;53.132;6.370;2023-08-31T04:46:13;8.10;;;2.47;;
51943;SDS011;37969;53.132;6.370;2023-08-31T04:48:39;6.72;;;2.17;;
51943;SDS011;37969;53.132;6.370;2023-08-31T04:51:05;8.45;;;2.20;;
51943;SDS011;37969;53.132;6.370;2023-08-31T04:53:31;4.13;;;2.20;;
51943;SDS011;37969;53.132;6.370;2023-08-31T04:55:58;5.10;;;1.95;;
51943;SDS011;37969;53.132;6.370;2023-08-31T04:58:24;6.95;;;2.13;;
51943;SDS011;37969;53.132;6.370;2023-08-31T05:00:51;3.72;;;2.17;;
51943;SDS011;37969;53.132;6.370;2023-08-31T05:03:18;6.25;;;1.98;;
51943;SDS011;37969;53.132;6.370;2023-08-31T05:05:44;6.80;;;2.22;;
51943;SDS011;37969;53.132;6.370;2023-08-31T05:08:10;3.95;;;1.88;;
51943;SDS011;37969;53.132;6.370;2023-08-31T05:10:36;5.22;;;2.35;;
51943;SDS011;37969;53.132;6.370;2023-08-31T05:13:02;3.70;;;2.28;;
51943;SDS011;37969;53.132;6.370;2023-08-31T05:15:29;3.50;;;1.95;;
51943;SDS011;37969;53.132;6.370;2023-08-31T05:17:55;3.53;;;2.10;;
51943;SDS011;37969;53.132;6.370;2023-08-31T05:20:21;4.38;;;1.90;;
51943;SDS011;37969;53.132;6.370;2023-08-31T05:22:48;6.55;;;2.22;;
51943;SDS011;37969;53.132;6.370;2023-08-31T05:25:15;5.75;;;1.90;;
51943;SDS011;37969;53.132;6.370;2023-08-31T05:27:41;8.52;;;2.28;;
51943;SDS011;37969;53.132;6.370;2023-08-31T05:30:07;8.65;;;2.17;;
51943;SDS011;37969;53.132;6.370;2023-08-31T05:32:34;4.80;;;2.10;;
51943;SDS011;37969;53.132;6.370;2023-08-31T05:35:00;5.68;;;2.08;;
51943;SDS011;37969;53.132;6.370;2023-08-31T05:37:31;5.05;;;2.35;;
51943;SDS011;37969;53.132;6.370;2023-08-31T05:39:58;6.85;;;2.65;;
51943;SDS011;37969;53.132;6.370;2023-08-31T05:42:24;4.35;;;2.20;;
51943;SDS011;37969;53.132;6.370;2023-08-31T05:44:51;9.23;;;3.38;;
51943;SDS011;37969;53.132;6.370;2023-08-31T05:47:17;5.90;;;2.92;;
51943;SDS011;37969;53.132;6.370;2023-08-31T05:49:44;7.25;;;2.22;;
51943;SDS011;37969;53.132;6.370;2023-08-31T05:52:10;4.30;;;2.30;;
51943;SDS011;37969;53.132;6.370;2023-08-31T05:54:36;7.47;;;2.60;;
51943;SDS011;37969;53.132;6.370;2023-08-31T05:57:02;9.25;;;3.30;;
51943;SDS011;37969;53.132;6.370;2023-08-31T05:59:30;5.95;;;2.60;;
51943;SDS011;37969;53.132;6.370;2023-08-31T06:01:56;6.95;;;2.55;;
51943;SDS011;37969;53.132;6.370;2023-08-31T06:04:23;6.75;;;2.13;;
51943;SDS011;37969;53.132;6.370;2023-08-31T06:06:49;4.25;;;1.90;;
51943;SDS011;37969;53.132;6.370;2023-08-31T06:09:18;6.55;;;2.33;;
51943;SDS011;37969;53.132;6.370;2023-08-31T06:11:46;8.25;;;2.00;;
51943;SDS011;37969;53.132;6.370;2023-08-31T06:14:12;3.03;;;1.65;;
51943;SDS011;37969;53.132;6.370;2023-08-31T06:16:39;5.43;;;2.00;;
51943;SDS011;37969;53.132;6.370;2023-08-31T06:19:05;5.75;;;2.08;;
51943;SDS011;37969;53.132;6.370;2023-08-31T06:21:31;8.02;;;2.00;;
51943;SDS011;37969;53.132;6.370;2023-08-31T06:23:57;4.85;;;2.20;;
51943;SDS011;37969;53.132;6.370;2023-08-31T06:26:23;7.85;;;2.42;;
51943;SDS011;37969;53.132;6.370;2023-08-31T06:28:50;8.40;;;2.13;;
51943;SDS011;37969;53.132;6.370;2023-08-31T06:31:16;6.22;;;2.47;;
51943;SDS011;37969;53.132;6.370;2023-08-31T06:33:42;3.53;;;1.77;;
51943;SDS011;37969;53.132;6.370;2023-08-31T06:36:08;7.30;;;2.38;;
51943;SDS011;37969;53.132;6.370;2023-08-31T06:38:34;5.55;;;1.70;;
51943;SDS011;37969;53.132;6.370;2023-08-31T06:41:01;6.15;;;2.40;;
51943;SDS011;37969;53.132;6.370;2023-08-31T06:43:28;2.80;;;1.80;;
51943;SDS011;37969;53.132;6.370;2023-08-31T06:45:54;6.82;;;1.77;;
51943;SDS011;37969;53.132;6.370;2023-08-31T06:48:20;6.32;;;1.85;;
51943;SDS011;37969;53.132;6.370;2023-08-31T06:50:47;2.88;;;1.75;;
51943;SDS011;37969;53.132;6.370;2023-08-31T06:53:13;5.97;;;1.85;;
51943;SDS011;37969;53.132;6.370;2023-08-31T06:55:39;7.45;;;2.28;;
51943;SDS011;37969;53.132;6.370;2023-08-31T06:58:06;5.18;;;1.98;;
51943;SDS011;37969;53.132;6.370;2023-08-31T07:00:32;5.03;;;1.90;;
51943;SDS011;37969;53.132;6.370;2023-08-31T07:02:58;5.40;;;1.58;;
51943;SDS011;37969;53.132;6.370;2023-08-31T07:05:25;2.42;;;1.50;;
51943;SDS011;37969;53.132;6.370;2023-08-31T07:07:52;3.78;;;1.60;;
51943;SDS011;37969;53.132;6.370;2023-08-31T07:10:20;2.47;;;1.40;;
51943;SDS011;37969;53.132;6.370;2023-08-31T07:12:46;3.45;;;1.55;;
51943;SDS011;37969;53.132;6.370;2023-08-31T07:15:13;3.45;;;1.60;;
51943;SDS011;37969;53.132;6.370;2023-08-31T07:17:39;3.50;;;1.70;;
51943;SDS011;37969;53.132;6.370;2023-08-31T07:20:05;4.35;;;1.80;;
51943;SDS011;37969;53.132;6.370;2023-08-31T07:22:33;3.35;;;1.60;;
51943;SDS011;37969;53.132;6.370;2023-08-31T07:25:00;4.25;;;1.60;;
51943;SDS011;37969;53.132;6.370;2023-08-31T07:27:26;3.35;;;1.50;;
51943;SDS011;37969;53.132;6.370;2023-08-31T07:29:55;4.78;;;1.33;;
51943;SDS011;37969;53.132;6.370;2023-08-31T07:32:22;4.07;;;1.85;;
51943;SDS011;37969;53.132;6.370;2023-08-31T07:34:48;2.08;;;1.00;;
51943;SDS011;37969;53.132;6.370;2023-08-31T07:37:14;2.58;;;1.30;;
51943;SDS011;37969;53.132;6.370;2023-08-31T07:39:40;5.15;;;1.50;;
51943;SDS011;37969;53.132;6.370;2023-08-31T07:42:07;4.32;;;1.17;;
51943;SDS011;37969;53.132;6.370;2023-08-31T07:44:39;7.10;;;1.33;;
51943;SDS011;37969;53.132;6.370;2023-08-31T07:47:07;3.33;;;1.17;;
51943;SDS011;37969;53.132;6.370;2023-08-31T07:49:35;6.97;;;0.95;;
51943;SDS011;37969;53.132;6.370;2023-08-31T07:52:01;2.60;;;1.00;;
51943;SDS011;37969;53.132;6.370;2023-08-31T07:54:28;2.17;;;1.00;;
51943;SDS011;37969;53.132;6.370;2023-08-31T07:56:54;6.15;;;1.25;;
51943;SDS011;37969;53.132;6.370;2023-08-31T07:59:20;3.33;;;1.10;;
51943;SDS011;37969;53.132;6.370;2023-08-31T08:01:47;2.90;;;1.35;;
51943;SDS011;37969;53.132;6.370;2023-08-31T08:04:13;4.95;;;0.98;;
51943;SDS011;37969;53.132;6.370;2023-08-31T08:06:40;3.83;;;1.10;;
51943;SDS011;37969;53.132;6.370;2023-08-31T08:09:07;3.13;;;0.80;;
51943;SDS011;37969;53.132;6.370;2023-08-31T08:11:34;2.55;;;0.88;;
51943;SDS011;37969;53.132;6.370;2023-08-31T08:14:00;8.48;;;1.17;;
51943;SDS011;37969;53.132;6.370;2023-08-31T08:16:28;6.30;;;1.27;;
51943;SDS011;37969;53.132;6.370;2023-08-31T08:18:54;3.42;;;0.98;;
51943;SDS011;37969;53.132;6.370;2023-08-31T08:21:20;2.60;;;0.80;;
51943;SDS011;37969;53.132;6.370;2023-08-31T08:23:46;2.88;;;1.00;;
51943;SDS011;37969;53.132;6.370;2023-08-31T08:26:16;5.40;;;1.35;;
51943;SDS011;37969;53.132;6.370;2023-08-31T08:28:42;4.40;;;1.48;;
51943;SDS011;37969;53.132;6.370;2023-08-31T08:31:08;3.60;;;0.77;;
51943;SDS011;37969;53.132;6.370;2023-08-31T08:33:34;4.68;;;1.00;;
51943;SDS011;37969;53.132;6.370;2023-08-31T08:36:00;2.50;;;0.85;;
51943;SDS011;37969;53.132;6.370;2023-08-31T08:38:27;3.78;;;0.80;;
51943;SDS011;37969;53.132;6.370;2023-08-31T08:40:53;5.45;;;1.42;;
51943;SDS011;37969;53.132;6.370;2023-08-31T08:43:24;1.08;;;0.63;;
51943;SDS011;37969;53.132;6.370;2023-08-31T08:45:51;2.63;;;1.15;;
51943;SDS011;37969;53.132;6.370;2023-08-31T08:48:17;5.78;;;0.77;;
51943;SDS011;37969;53.132;6.370;2023-08-31T08:50:44;2.88;;;0.60;;
51943;SDS011;37969;53.132;6.370;2023-08-31T08:53:10;3.25;;;0.70;;
51943;SDS011;37969;53.132;6.370;2023-08-31T08:55:40;4.18;;;0.90;;
51943;SDS011;37969;53.132;6.370;2023-08-31T08:58:06;0.93;;;0.40;;
51943;SDS011;37969;53.132;6.370;2023-08-31T09:00:33;2.75;;;0.63;;
51943;SDS011;37969;53.132;6.370;2023-08-31T09:03:00;0.65;;;0.57;;
51943;SDS011;37969;53.132;6.370;2023-08-31T09:05:31;1.73;;;0.70;;
51943;SDS011;37969;53.132;6.370;2023-08-31T09:10:33;2.72;;;1.17;;
51943;SDS011;37969;53.132;6.370;2023-08-31T09:13:00;1.20;;;0.70;;
51943;SDS011;37969;53.132;6.370;2023-08-31T09:15:35;1.95;;;0.90;;
51943;SDS011;37969;53.132;6.370;2023-08-31T09:18:02;2.42;;;0.85;;
51943;SDS011;37969;53.132;6.370;2023-08-31T09:20:28;2.60;;;1.02;;
51943;SDS011;37969;53.132;6.370;2023-08-31T09:22:55;1.33;;;0.68;;
51943;SDS011;37969;53.132;6.370;2023-08-31T09:25:21;3.22;;;1.33;;
51943;SDS011;37969;53.132;6.370;2023-08-31T09:27:48;2.28;;;1.20;;
51943;SDS011;37969;53.132;6.370;2023-08-31T09:30:14;2.35;;;0.80;;
51943;SDS011;37969;53.132;6.370;2023-08-31T09:32:40;5.38;;;1.20;;
51943;SDS011;37969;53.132;6.370;2023-08-31T09:35:09;4.80;;;0.98;;
51943;SDS011;37969;53.132;6.370;2023-08-31T09:37:35;2.53;;;0.90;;
51943;SDS011;37969;53.132;6.370;2023-08-31T09:40:02;4.50;;;1.30;;
51943;SDS011;37969;53.132;6.370;2023-08-31T09:42:36;4.60;;;1.40;;
51943;SDS011;37969;53.132;6.370;2023-08-31T09:45:03;4.20;;;1.45;;
51943;SDS011;37969;53.132;6.370;2023-08-31T09:47:30;4.72;;;0.70;;
51943;SDS011;37969;53.132;6.370;2023-08-31T09:49:57;2.70;;;0.70;;
51943;SDS011;37969;53.132;6.370;2023-08-31T09:52:24;2.80;;;0.80;;
51943;SDS011;37969;53.132;6.370;2023-08-31T09:54:51;2.60;;;0.82;;
51943;SDS011;37969;53.132;6.370;2023-08-31T09:57:18;2.90;;;0.77;;
51943;SDS011;37969;53.132;6.370;2023-08-31T09:59:47;1.98;;;0.93;;
51943;SDS011;37969;53.132;6.370;2023-08-31T10:02:13;2.85;;;1.20;;
51943;SDS011;37969;53.132;6.370;2023-08-31T10:04:41;1.85;;;0.70;;
51943;SDS011;37969;53.132;6.370;2023-08-31T10:07:08;4.70;;;0.98;;
51943;SDS011;37969;53.132;6.370;2023-08-31T10:09:35;2.20;;;0.63;;
51943;SDS011;37969;53.132;6.370;2023-08-31T10:12:03;4.25;;;0.73;;
51943;SDS011;37969;53.132;6.370;2023-08-31T10:14:30;3.40;;;0.88;;
51943;SDS011;37969;53.132;6.370;2023-08-31T10:16:56;3.08;;;0.80;;
51943;SDS011;37969;53.132;6.370;2023-08-31T10:19:23;6.63;;;1.90;;
51943;SDS011;37969;53.132;6.370;2023-08-31T10:21:50;3.40;;;1.52;;
51943;SDS011;37969;53.132;6.370;2023-08-31T10:24:16;5.38;;;0.95;;
51943;SDS011;37969;53.132;6.370;2023-08-31T10:26:43;1.67;;;0.80;;
51943;SDS011;37969;53.132;6.370;2023-08-31T10:29:25;3.60;;;0.60;;
51943;SDS011;37969;53.132;6.370;2023-08-31T10:31:52;4.05;;;0.70;;
51943;SDS011;37969;53.132;6.370;2023-08-31T10:34:19;5.65;;;1.20;;
51943;SDS011;37969;53.132;6.370;2023-08-31T10:37:00;5.55;;;1.08;;
51943;SDS011;37969;53.132;6.370;2023-08-31T10:39:36;3.05;;;0.70;;
51943;SDS011;37969;53.132;6.370;2023-08-31T10:42:03;4.20;;;0.90;;
51943;SDS011;37969;53.132;6.370;2023-08-31T10:44:30;1.17;;;0.77;;
51943;SDS011;37969;53.132;6.370;2023-08-31T10:46:59;4.32;;;1.05;;
51943;SDS011;37969;53.132;6.370;2023-08-31T10:49:25;2.03;;;0.60;;
51943;SDS011;37969;53.132;6.370;2023-08-31T10:51:57;2.53;;;0.90;;
51943;SDS011;37969;53.132;6.370;2023-08-31T10:54:25;2.25;;;0.77;;
51943;SDS011;37969;53.132;6.370;2023-08-31T10:59:21;4.30;;;0.80;;
51943;SDS011;37969;53.132;6.370;2023-08-31T11:01:55;2.55;;;0.82;;
51943;SDS011;37969;53.132;6.370;2023-08-31T11:04:22;3.67;;;0.80;;
51943;SDS011;37969;53.132;6.370;2023-08-31T11:06:50;4.05;;;0.85;;
51943;SDS011;37969;53.132;6.370;2023-08-31T11:09:34;2.75;;;0.63;;
51943;SDS011;37969;53.132;6.370;2023-08-31T11:12:01;2.00;;;0.60;;
51943;SDS011;37969;53.132;6.370;2023-08-31T11:14:28;1.77;;;0.70;;
51943;SDS011;37969;53.132;6.370;2023-08-31T11:16:54;2.47;;;0.90;;
51943;SDS011;37969;53.132;6.370;2023-08-31T11:19:21;5.28;;;1.35;;
51943;SDS011;37969;53.132;6.370;2023-08-31T11:21:47;1.60;;;0.80;;
51943;SDS011;37969;53.132;6.370;2023-08-31T11:24:13;4.03;;;1.30;;
51943;SDS011;37969;53.132;6.370;2023-08-31T11:26:40;3.55;;;1.08;;
51943;SDS011;37969;53.132;6.370;2023-08-31T11:29:06;2.50;;;0.98;;
51943;SDS011;37969;53.132;6.370;2023-08-31T11:31:35;2.55;;;0.80;;
51943;SDS011;37969;53.132;6.370;2023-08-31T11:34:05;2.05;;;0.75;;
51943;SDS011;37969;53.132;6.370;2023-08-31T11:36:32;3.15;;;1.00;;
51943;SDS011;37969;53.132;6.370;2023-08-31T11:38:59;3.58;;;0.90;;
51943;SDS011;37969;53.132;6.370;2023-08-31T11:41:30;3.42;;;0.85;;
51943;SDS011;37969;53.132;6.370;2023-08-31T11:43:56;3.70;;;1.00;;
51943;SDS011;37969;53.132;6.370;2023-08-31T11:46:22;1.48;;;0.70;;
51943;SDS011;37969;53.132;6.370;2023-08-31T11:48:50;1.90;;;0.60;;
51943;SDS011;37969;53.132;6.370;2023-08-31T11:51:16;3.47;;;0.95;;
51943;SDS011;37969;53.132;6.370;2023-08-31T11:53:44;1.95;;;0.90;;
51943;SDS011;37969;53.132;6.370;2023-08-31T11:56:10;4.03;;;1.20;;
51943;SDS011;37969;53.132;6.370;2023-08-31T11:58:43;1.83;;;1.00;;
51943;SDS011;37969;53.132;6.370;2023-08-31T12:01:17;4.15;;;0.90;;
51943;SDS011;37969;53.132;6.370;2023-08-31T12:03:44;1.58;;;0.80;;
51943;SDS011;37969;53.132;6.370;2023-08-31T12:06:10;3.00;;;0.60;;
51943;SDS011;37969;53.132;6.370;2023-08-31T12:08:37;3.38;;;0.82;;
51943;SDS011;37969;53.132;6.370;2023-08-31T12:11:06;2.03;;;0.75;;
51943;SDS011;37969;53.132;6.370;2023-08-31T12:13:32;1.67;;;0.60;;
51943;SDS011;37969;53.132;6.370;2023-08-31T12:15:58;2.92;;;0.93;;
51943;SDS011;37969;53.132;6.370;2023-08-31T12:18:29;1.88;;;1.00;;
51943;SDS011;37969;53.132;6.370;2023-08-31T12:20:56;4.55;;;1.10;;
51943;SDS011;37969;53.132;6.370;2023-08-31T12:23:25;1.83;;;0.82;;
51943;SDS011;37969;53.132;6.370;2023-08-31T12:25:52;6.03;;;0.98;;
51943;SDS011;37969;53.132;6.370;2023-08-31T12:28:19;4.70;;;1.10;;
51943;SDS011;37969;53.132;6.370;2023-08-31T12:30:47;1.90;;;1.10;;
51943;SDS011;37969;53.132;6.370;2023-08-31T12:33:14;2.40;;;1.00;;
51943;SDS011;37969;53.132;6.370;2023-08-31T12:35:40;6.63;;;1.00;;
51943;SDS011;37969;53.132;6.370;2023-08-31T12:38:06;7.45;;;1.40;;
51943;SDS011;37969;53.132;6.370;2023-08-31T12:40:33;5.53;;;1.30;;
51943;SDS011;37969;53.132;6.370;2023-08-31T12:42:59;2.58;;;1.00;;
51943;SDS011;37969;53.132;6.370;2023-08-31T12:45:25;3.55;;;1.00;;
51943;SDS011;37969;53.132;6.370;2023-08-31T12:47:51;4.50;;;0.95;;
51943;SDS011;37969;53.132;6.370;2023-08-31T12:50:17;2.83;;;1.02;;
51943;SDS011;37969;53.132;6.370;2023-08-31T12:52:44;4.70;;;0.98;;
51943;SDS011;37969;53.132;6.370;2023-08-31T12:55:11;5.63;;;1.33;;
51943;SDS011;37969;53.132;6.370;2023-08-31T12:57:38;4.20;;;1.52;;
51943;SDS011;37969;53.132;6.370;2023-08-31T13:00:04;4.20;;;1.30;;
51943;SDS011;37969;53.132;6.370;2023-08-31T13:02:31;7.70;;;1.63;;
51943;SDS011;37969;53.132;6.370;2023-08-31T13:04:57;3.50;;;1.15;;
51943;SDS011;37969;53.132;6.370;2023-08-31T13:07:24;4.95;;;1.30;;
51943;SDS011;37969;53.132;6.370;2023-08-31T13:09:50;6.40;;;1.90;;
51943;SDS011;37969;53.132;6.370;2023-08-31T13:12:16;4.30;;;1.20;;
51943;SDS011;37969;53.132;6.370;2023-08-31T13:14:44;4.43;;;1.60;;
51943;SDS011;37969;53.132;6.370;2023-08-31T13:17:10;3.97;;;1.52;;
51943;SDS011;37969;53.132;6.370;2023-08-31T13:19:36;5.13;;;1.27;;
51943;SDS011;37969;53.132;6.370;2023-08-31T13:22:02;5.88;;;1.58;;
51943;SDS011;37969;53.132;6.370;2023-08-31T13:24:29;4.18;;;1.80;;
51943;SDS011;37969;53.132;6.370;2023-08-31T13:26:55;6.20;;;1.73;;
51943;SDS011;37969;53.132;6.370;2023-08-31T13:29:21;4.28;;;1.40;;
51943;SDS011;37969;53.132;6.370;2023-08-31T13:31:47;3.45;;;1.30;;
51943;SDS011;37969;53.132;6.370;2023-08-31T13:34:14;3.35;;;1.25;;
51943;SDS011;37969;53.132;6.370;2023-08-31T13:36:40;3.03;;;0.90;;
51943;SDS011;37969;53.132;6.370;2023-08-31T13:39:07;6.40;;;1.13;;
51943;SDS011;37969;53.132;6.370;2023-08-31T13:41:33;4.03;;;1.20;;
51943;SDS011;37969;53.132;6.370;2023-08-31T13:43:59;6.90;;;1.20;;
51943;SDS011;37969;53.132;6.370;2023-08-31T13:46:25;4.30;;;1.30;;
51943;SDS011;37969;53.132;6.370;2023-08-31T13:48:52;3.30;;;1.10;;
51943;SDS011;37969;53.132;6.370;2023-08-31T13:51:18;3.55;;;1.30;;
51943;SDS011;37969;53.132;6.370;2023-08-31T13:53:45;3.78;;;1.10;;
51943;SDS011;37969;53.132;6.370;2023-08-31T13:56:12;4.78;;;1.40;;
51943;SDS011;37969;53.132;6.370;2023-08-31T13:58:38;3.35;;;1.30;;
51943;SDS011;37969;53.132;6.370;2023-08-31T14:01:05;4.72;;;1.60;;
51943;SDS011;37969;53.132;6.370;2023-08-31T14:03:31;4.15;;;1.40;;
51943;SDS011;37969;53.132;6.370;2023-08-31T14:05:57;3.78;;;0.95;;
51943;SDS011;37969;53.132;6.370;2023-08-31T14:08:23;5.53;;;1.33;;
51943;SDS011;37969;53.132;6.370;2023-08-31T14:10:50;6.60;;;1.38;;
51943;SDS011;37969;53.132;6.370;2023-08-31T14:13:18;6.78;;;1.40;;
51943;SDS011;37969;53.132;6.370;2023-08-31T14:15:45;4.35;;;1.48;;
51943;SDS011;37969;53.132;6.370;2023-08-31T14:18:12;4.40;;;1.90;;
51943;SDS011;37969;53.132;6.370;2023-08-31T14:20:38;6.22;;;1.92;;
51943;SDS011;37969;53.132;6.370;2023-08-31T14:23:05;4.07;;;1.20;;
51943;SDS011;37969;53.132;6.370;2023-08-31T14:25:35;2.90;;;1.17;;
51943;SDS011;37969;53.132;6.370;2023-08-31T14:28:02;1.15;;;0.90;;
51943;SDS011;37969;53.132;6.370;2023-08-31T14:30:28;2.65;;;0.90;;
51943;SDS011;37969;53.132;6.370;2023-08-31T14:32:55;4.82;;;2.45;;
51943;SDS011;37969;53.132;6.370;2023-08-31T14:35:21;3.58;;;1.05;;
51943;SDS011;37969;53.132;6.370;2023-08-31T14:37:47;5.35;;;1.30;;
51943;SDS011;37969;53.132;6.370;2023-08-31T14:40:13;4.57;;;1.30;;
51943;SDS011;37969;53.132;6.370;2023-08-31T14:42:40;3.45;;;1.20;;
51943;SDS011;37969;53.132;6.370;2023-08-31T14:45:06;4.00;;;1.20;;
51943;SDS011;37969;53.132;6.370;2023-08-31T14:47:32;4.63;;;1.15;;
51943;SDS011;37969;53.132;6.370;2023-08-31T14:49:59;2.75;;;1.30;;
51943;SDS011;37969;53.132;6.370;2023-08-31T14:52:25;4.85;;;1.40;;
51943;SDS011;37969;53.132;6.370;2023-08-31T14:54:51;3.28;;;1.08;;
51943;SDS011;37969;53.132;6.370;2023-08-31T14:57:17;2.38;;;1.00;;